• Join FlightAware (Why Join?)
  • Login
  • US Flag 
07:41PM EDT


 

Airport Tracker/Info


-or-


 

Live Flight TrackerFlight Track Log ✈ EJA583 ✈ 15-Nov-2013 ✈ KTEB - KSAV

Flight Track Log - Related Links

Times and Time Zones

All times are in EST time to prevent confusion due to time zone crossing. See the EJA583 flight status page for this flight to view local times or setup timezone preferences in your user account.

Time Position Orientation Groundspeed Altitude Reporting Facility
EST Latitude Longitude Course Direction KTS MPH feet Rate Location/Type
08:30AM 40.8333 -74.1000 252° West 177 204 1,500  Level New York TRACON
08:31AM 40.8167 -74.1667 252° West 204 235 2,400 1,860 Climbing New York TRACON
08:32AM 40.7833 -74.2333 237° Southwest 257 296 5,300 3,000 Climbing New York TRACON
08:33AM 40.7167 -74.2500 191° South 255 293 8,500 3,240 Climbing New York TRACON
08:34AM 40.6500 -74.2667 191° South 276 318 11,500 3,180 Climbing New York TRACON
08:35AM 40.5500 -74.2667 180° South 302 348 14,900 1,800 Climbing New York TRACON
08:37AM 40.3183 -74.2608 179° South 360 414 17,900 1,500 Climbing New York Center
08:40AM 40.1050 -74.3600 200° South 350 403 22,400 1,680 Climbing Washington Center
08:41AM 40.0225 -74.4375 216° Southwest 360 414 23,900 780 Climbing Washington Center
08:42AM 39.9378 -74.5200 217° Southwest 378 435 24,000 120 Climbing Washington Center
08:43AM 39.8511 -74.6022 216° Southwest 384 442 24,200 1,020 Climbing Washington Center
08:44AM 39.7642 -74.6819 215° Southwest 384 442 26,100 1,860 Climbing Washington Center
08:45AM 39.6836 -74.7583 216° Southwest 378 435 28,000 1,620 Climbing Washington Center
08:46AM 39.6008 -74.8375 216° Southwest 378 435 29,500 1,440 Climbing Washington Center
08:47AM 39.5094 -74.9217 215° Southwest 378 435 31,000 1,500 Climbing Washington Center
08:48AM 39.4225 -74.9978 214° Southwest 378 435 32,500 1,500 Climbing Washington Center
08:49AM 39.3394 -75.0764 216° Southwest 378 435 34,000 1,440 Climbing Washington Center
08:50AM 39.2500 -75.1386 208° Southwest 378 435 35,500 1,380 Climbing Washington Center
08:51AM 39.1481 -75.1794 197° South 373 429 36,900 1,620 Climbing Washington Center
08:52AM 39.0481 -75.2200 197° South 379 436 38,800 1,560 Climbing Washington Center
08:53AM 38.9544 -75.2606 199° South 374 430 40,000 540 Climbing Washington Center
08:54AM 38.8586 -75.3011 198° South 369 425 40,000  Level Washington Center
08:55AM 38.7608 -75.3361 196° South 369 425 40,000  Level Washington Center
08:56AM 38.6589 -75.3869 201° Southwest 374 430 40,000  Level Washington Center
08:57AM 38.5608 -75.4217 195° South 374 430 40,000  Level Washington Center
08:58AM 38.4586 -75.4672 199° South 379 436 40,000  Level Washington Center
08:59AM 38.3608 -75.5069 198° South 384 442 40,000  Level Washington Center
09:00AM 38.2858 -75.5678 212° Southwest 376 433 40,000  Level Washington Center
09:01AM 38.2022 -75.6392 214° Southwest 366 421 40,000  Level Washington Center
09:02AM 38.1250 -75.7158 218° Southwest 366 421 40,000  Level Washington Center
09:03AM 38.0478 -75.7894 217° Southwest 360 414 40,000  Level Washington Center
09:04AM 37.9728 -75.8606 217° Southwest 360 414 40,000  Level Washington Center
09:05AM 37.8911 -75.9339 215° Southwest 354 407 40,000  Level Washington Center
09:06AM 37.8158 -76.0044 217° Southwest 354 407 40,000  Level Washington Center
09:07AM 37.7425 -76.0828 220° Southwest 354 407 40,000  Level Washington Center
09:08AM 37.6650 -76.1533 216° Southwest 354 407 40,000  Level Washington Center
09:09AM 37.5917 -76.2233 217° Southwest 343 395 40,000  Level Washington Center
09:10AM 37.5161 -76.2961 217° Southwest 348 400 40,000  Level Washington Center
09:11AM 37.4406 -76.3714 218° Southwest 348 400 40,000  Level Washington Center
09:12AM 37.3692 -76.4411 218° Southwest 348 400 40,000  Level Washington Center
09:13AM 37.2958 -76.5133 218° Southwest 348 400 40,000  Level Washington Center
09:14AM 37.2222 -76.5856 218° Southwest 348 400 40,000  Level Washington Center
09:15AM 37.1464 -76.6575 217° Southwest 348 400 40,000  Level Washington Center
09:16AM 37.0728 -76.7294 218° Southwest 348 400 40,000  Level Washington Center
09:17AM 37.0011 -76.8039 220° Southwest 348 400 40,000  Level Washington Center
09:18AM 36.9253 -76.8753 217° Southwest 348 400 40,000  Level Washington Center
09:19AM 36.8514 -76.9469 218° Southwest 348 400 40,000  Level Washington Center
09:20AM 36.7797 -77.0208 220° Southwest 348 400 40,000  Level Washington Center
09:21AM 36.7081 -77.0894 218° Southwest 343 395 40,000  Level Washington Center
09:22AM 36.6319 -77.1606 217° Southwest 343 395 40,000  Level Washington Center
09:23AM 36.5600 -77.2314 218° Southwest 348 400 40,000  Level Washington Center
09:24AM 36.4839 -77.3022 217° Southwest 348 400 40,000  Level Washington Center
09:25AM 36.4100 -77.3753 219° Southwest 348 400 40,000  Level Washington Center
09:26AM 36.3358 -77.4433 216° Southwest 348 400 40,000  Level Washington Center
09:27AM 36.2594 -77.5214 219° Southwest 343 395 40,000  Level Washington Center
09:28AM 36.1853 -77.5917 217° Southwest 343 395 40,000  Level Washington Center
09:29AM 36.1111 -77.6617 217° Southwest 343 395 40,000  Level Washington Center
09:30AM 36.0369 -77.7317 217° Southwest 343 395 40,000  Level Washington Center
09:31AM 35.9647 -77.8017 218° Southwest 343 395 40,000  Level Washington Center
09:32AM 35.8925 -77.8689 217° Southwest 343 395 40,000  Level Washington Center
09:33AM 35.8181 -77.9358 216° Southwest 343 395 40,000  Level Washington Center
09:34AM 35.7436 -78.0053 217° Southwest 338 389 40,000  Level Washington Center
09:35AM 35.6692 -78.0719 216° Southwest 338 389 40,000  Level Washington Center
09:36AM 35.5947 -78.1411 217° Southwest 338 389 40,000  Level Washington Center
09:37AM 35.5181 -78.2103 216° Southwest 343 395 40,000  Level Washington Center
09:38AM 35.4436 -78.2792 217° Southwest 348 400 40,000  Level Washington Center
09:39AM 35.3647 -78.3478 215° Southwest 348 400 40,000  Level Washington Center
09:40AM 35.2986 -78.4117 218° Southwest 348 400 40,000  Level Washington Center
09:41AM 35.2219 -78.4828 217° Southwest 348 400 40,000  Level Washington Center
09:42AM 35.1492 -78.5539 219° Southwest 348 400 40,000  Level Washington Center
09:43AM 35.0725 -78.6222 216° Southwest 348 400 40,000  Level Washington Center
09:44AM 34.9975 -78.6903 217° Southwest 348 400 40,000  Level Washington Center
09:45AM 34.9228 -78.7608 218° Southwest 348 400 40,000  Level Washington Center
09:47AM 34.7867 -78.8836 217° Southwest 345 397 40,000  Level Jacksonville Center
09:48AM 34.7094 -78.9528 216° Southwest 345 397 40,000  Level Jacksonville Center
09:49AM 34.6322 -79.0194 215° Southwest 345 397 40,000  Level Jacksonville Center
09:50AM 34.5572 -79.0908 218° Southwest 351 404 40,000  Level Jacksonville Center
09:51AM 34.4822 -79.1647 219° Southwest 351 404 40,000  Level Jacksonville Center
09:52AM 34.4069 -79.2308 216° Southwest 351 404 40,000  Level Jacksonville Center
09:53AM 34.3317 -79.2969 216° Southwest 345 397 40,000  Level Jacksonville Center
09:54AM 34.2544 -79.3656 216° Southwest 345 397 40,000  Level Jacksonville Center
09:55AM 34.1872 -79.4208 214° Southwest 352 405 40,000  Level Jacksonville Center
09:56AM 34.1119 -79.4892 217° Southwest 346 398 40,000  Level Jacksonville Center
09:57AM 34.0364 -79.5572 217° Southwest 346 398 40,000  Level Jacksonville Center
09:58AM 33.9611 -79.6250 217° Southwest 346 398 40,000 -480 Level Jacksonville Center
09:59AM 33.8836 -79.6956 217° Southwest 346 398 39,100 -960 Descending Jacksonville Center
10:00AM 33.8164 -79.7581 218° Southwest 341 392 38,100 -1,020 Descending Jacksonville Center
10:01AM 33.7425 -79.8181 214° Southwest 330 380 37,100 -1,020 Descending Jacksonville Center
10:02AM 33.6792 -79.8750 217° Southwest 311 358 36,100 -1,020 Descending Jacksonville Center
10:03AM 33.6117 -79.9322 215° Southwest 305 351 35,100 -1,140 Descending Jacksonville Center
10:04AM 33.5464 -79.9894 216° Southwest 300 345 33,900 -1,500 Descending Jacksonville Center
10:05AM 33.4747 -80.0514 216° Southwest 312 359 32,200 -1,740 Descending Jacksonville Center
10:06AM 33.4011 -80.1161 216° Southwest 323 372 30,500 -1,800 Descending Jacksonville Center
10:07AM 33.3211 -80.1856 216° Southwest 339 390 28,600 -2,100 Descending Jacksonville Center
10:08AM 33.2311 -80.2678 217° Southwest 368 423 26,300 -1,980 Descending Jacksonville Center
10:09AM 33.1531 -80.3322 215° Southwest 384 442 24,700 -2,040 Descending Jacksonville Center
10:10AM 33.0586 -80.4167 217° Southwest 384 442 22,300 -2,160 Descending Jacksonville Center
10:11AM 32.9703 -80.4883 214° Southwest 389 448 20,400 -1,980 Descending Jacksonville Center
10:12AM 32.8903 -80.5572 216° Southwest 379 436 18,400 -1,920 Descending Jacksonville Center
10:13AM 32.8081 -80.6286 216° Southwest 374 430 16,600 -1,860 Descending Jacksonville Center
10:14AM 32.7297 -80.6922 214° Southwest 363 418 14,700 -1,860 Descending Jacksonville Center
10:15AM 32.6517 -80.7608 217° Southwest 358 412 12,900 -1,800 Descending Jacksonville Center
10:16AM 32.5775 -80.8242 216° Southwest 338 389 11,200 -960 Descending Jacksonville Center
10:17AM 32.5033 -80.8875 216° Southwest 338 389 11,000 -600 Descending Jacksonville Center
10:18AM 32.4544 -80.9575 230° Southwest 310 357 10,000 -1,320 Descending Jacksonville Center
10:19AM 32.4536 -81.0486 269° West 268 308 8,400 -1,500 Descending Jacksonville Center
10:20AM 32.4592 -81.1369 274° West 273 314 7,000 -1,500 Descending Jacksonville Center
10:21AM 32.4686 -81.2231 277° West 273 314 5,500 -1,500 Descending Jacksonville Center
10:22AM 32.4675 -81.2994 269° West 267 307 4,100 -1,320 Descending Jacksonville Center
10:23AM 32.3947 -81.3228 195° South 225 259 2,900 -1,020 Descending Jacksonville Center
10:24AM 32.3281 -81.3289 184° South 242 278 2,100 -420 Descending Jacksonville Center
10:25AM 32.2572 -81.3350 184° South 248 285 2,100  Level Jacksonville Center
10:27AM 32.1276 -81.2021 180° South  Level Estimated
10:34AM 32.1276 -81.2021 180° South  Level Estimated
10:35AM 32.1276 -81.2021 180° South  Level Estimated
10:36AM 32.1276 -81.2021 180° South  Level Estimated
10:37AM 32.1276 -81.2021 180° South  Level Estimated
10:38AM 32.1276 -81.2021 180° South  Level Estimated